Time;durP1;ratioP1;P1;durP2;ratioP2;P2;SDS_P1;SDS_P2;PMS_P1;PMS_P2;Temp;Humidity;BMP_temperature;BMP_pressure;BME280_temperature;BME280_humidity;BME280_pressure;Samples;Min_cycle;Max_cycle;Signal;HPM_P1;HPM_P2
2023/12/13 00:02:07;;;;;;;76.43;23.95;;;8.90;99.90;;;;;;5070824;28;20039;-52
2023/12/13 00:04:32;;;;;;;88.55;26.30;;;9.20;99.90;;;;;;5070551;28;20483;-52
2023/12/13 00:06:58;;;;;;;84.68;25.38;;;9.00;99.90;;;;;;5069646;28;20036;-54
2023/12/13 00:09:24;;;;;;;86.18;25.60;;;9.30;99.90;;;;;;5070362;28;20044;-54
2023/12/13 00:11:49;;;;;;;76.80;24.42;;;9.20;99.90;;;;;;5069222;28;20494;-51
2023/12/13 00:14:17;;;;;;;69.00;23.40;;;9.00;99.90;;;;;;5070138;28;20516;-53
2023/12/13 00:16:43;;;;;;;80.80;24.88;;;9.40;99.90;;;;;;5070342;28;20111;-53
2023/12/13 00:19:08;;;;;;;64.22;22.65;;;9.30;99.90;;;;;;5070093;28;20421;-53
2023/12/13 00:21:35;;;;;;;59.85;21.45;;;9.20;99.90;;;;;;5071394;28;20419;-51
2023/12/13 00:24:01;;;;;;;47.45;19.02;;;8.90;99.90;;;;;;5074047;28;20036;-53
2023/12/13 00:26:27;;;;;;;53.55;18.75;;;9.30;99.90;;;;;;5074352;28;20036;-52
2023/12/13 00:28:52;;;;;;;49.42;16.48;;;9.30;99.90;;;;;;5074389;28;20476;-50
2023/12/13 00:31:18;;;;;;;46.75;15.35;;;9.40;99.90;;;;;;5074248;28;20036;-55
2023/12/13 00:33:44;;;;;;;41.60;14.32;;;9.20;99.90;;;;;;5074187;28;20032;-49
2023/12/13 00:36:10;;;;;;;39.45;24.15;;;9.00;99.90;;;;;;5072495;28;20452;-52
2023/12/13 00:38:35;;;;;;;38.03;13.65;;;8.80;99.90;;;;;;5074132;28;20072;-51
2023/12/13 00:41:01;;;;;;;31.73;11.60;;;9.10;99.90;;;;;;5073866;28;20395;-51
2023/12/13 00:43:27;;;;;;;27.63;11.43;;;9.20;99.90;;;;;;5074123;28;20115;-54
2023/12/13 00:45:53;;;;;;;27.63;11.45;;;8.80;99.90;;;;;;5074012;28;20036;-51
2023/12/13 00:48:19;;;;;;;28.05;11.05;;;8.90;99.90;;;;;;5073887;28;20147;-53
2023/12/13 00:50:44;;;;;;;25.38;10.27;;;9.10;99.90;;;;;;5073218;28;20035;-53
2023/12/13 00:53:12;;;;;;;22.52;10.27;;;9.10;99.90;;;;;;5073494;28;20082;-49
2023/12/13 00:55:38;;;;;;;25.17;9.60;;;9.20;99.90;;;;;;5073662;28;20055;-50
2023/12/13 00:58:04;;;;;;;20.35;9.27;;;9.10;99.90;;;;;;5073474;28;20032;-50
2023/12/13 01:00:30;;;;;;;21.23;9.40;;;8.80;99.90;;;;;;5073181;28;20480;-54
2023/12/13 01:02:55;;;;;;;22.00;8.57;;;8.70;99.90;;;;;;5073159;28;20032;-52
2023/12/13 01:05:21;;;;;;;20.95;9.20;;;9.00;99.90;;;;;;5073099;28;20077;-52
2023/12/13 01:07:47;;;;;;;18.73;9.30;;;8.80;99.90;;;;;;5073233;28;20045;-52
2023/12/13 01:10:13;;;;;;;20.48;8.73;;;9.20;99.90;;;;;;5073191;28;20062;-52
2023/12/13 01:12:44;;;;;;;23.58;8.65;;;8.80;99.90;;;;;;5071754;28;20847;-49
2023/12/13 01:15:10;;;;;;;23.10;9.23;;;8.80;99.90;;;;;;5072161;28;20072;-52
2023/12/13 01:17:36;;;;;;;24.33;10.32;;;9.20;99.90;;;;;;5073096;28;20499;-51
2023/12/13 01:20:06;;;;;;;20.88;9.00;;;9.00;99.90;;;;;;5072818;28;20037;-51
2023/12/13 01:22:32;;;;;;;24.13;9.55;;;8.80;99.90;;;;;;5073096;28;20118;-49
2023/12/13 01:24:57;;;;;;;24.52;10.35;;;9.00;99.90;;;;;;5073284;28;20032;-52
2023/12/13 01:27:23;;;;;;;22.80;9.55;;;9.00;99.90;;;;;;5073263;28;20072;-52
2023/12/13 01:29:49;;;;;;;23.40;9.88;;;8.80;99.90;;;;;;5071989;28;20582;-49
2023/12/13 01:32:14;;;;;;;22.88;9.77;;;9.20;99.90;;;;;;5072428;28;20472;-48
2023/12/13 01:34:40;;;;;;;27.55;10.15;;;8.80;99.90;;;;;;5072911;28;20037;-51
2023/12/13 01:37:06;;;;;;;20.80;10.13;;;8.70;99.90;;;;;;5072782;28;20068;-53
2023/12/13 01:39:31;;;;;;;27.58;10.75;;;9.10;99.90;;;;;;5072115;28;20135;-51
2023/12/13 01:41:57;;;;;;;22.23;10.25;;;9.20;99.90;;;;;;5072748;28;20036;-53
2023/12/13 01:44:23;;;;;;;26.38;10.48;;;8.90;99.90;;;;;;5072384;28;20555;-54
2023/12/13 01:46:50;;;;;;;24.02;9.90;;;9.10;99.90;;;;;;5072953;28;20086;-51
2023/12/13 01:49:16;;;;;;;23.30;10.88;;;9.30;99.90;;;;;;5072511;28;20120;-53
2023/12/13 01:51:44;;;;;;;23.38;9.85;;;8.70;99.90;;;;;;5072800;28;20503;-52
2023/12/13 01:54:12;;;;;;;21.15;9.73;;;9.20;99.90;;;;;;5071181;28;20037;-51
2023/12/13 01:56:42;;;;;;;17.83;8.90;;;8.70;99.90;;;;;;5072479;28;20086;-49
2023/12/13 01:59:09;;;;;;;22.95;9.95;;;8.70;99.90;;;;;;5072335;28;20535;-51
2023/12/13 02:01:36;;;;;;;20.95;10.05;;;9.30;99.90;;;;;;5072446;28;20487;-52
2023/12/13 02:04:02;;;;;;;25.27;10.35;;;9.00;99.90;;;;;;5072436;28;20082;-53
2023/12/13 02:06:29;;;;;;;21.73;9.57;;;8.70;99.90;;;;;;5072556;28;20047;-51
2023/12/13 02:08:55;;;;;;;21.80;9.65;;;9.10;99.90;;;;;;5072200;28;20037;-48
2023/12/13 02:11:20;;;;;;;21.45;10.10;;;8.60;99.90;;;;;;5071805;28;20051;-54
2023/12/13 02:13:46;;;;;;;23.88;9.80;;;8.60;99.90;;;;;;5072126;28;20044;-50
2023/12/13 02:16:12;;;;;;;24.40;10.15;;;8.80;99.90;;;;;;5070332;28;20040;-51
2023/12/13 02:18:38;;;;;;;22.83;10.23;;;9.00;99.90;;;;;;5072301;28;20036;-52
2023/12/13 02:21:05;;;;;;;20.30;9.65;;;9.00;99.90;;;;;;5071729;28;20383;-49
2023/12/13 02:23:30;;;;;;;21.05;10.25;;;9.00;99.90;;;;;;5071734;28;20044;-49
2023/12/13 02:26:01;;;;;;;22.48;10.43;;;9.00;99.90;;;;;;5071786;28;20028;-52
2023/12/13 02:28:28;;;;;;;22.83;10.20;;;9.00;99.90;;;;;;5070875;28;20097;-50
2023/12/13 02:30:56;;;;;;;24.60;10.13;;;9.00;99.90;;;;;;5071958;28;20431;-53
2023/12/13 02:33:26;;;;;;;25.42;11.45;;;9.00;99.90;;;;;;5071800;28;20043;-56
2023/12/13 02:35:53;;;;;;;23.83;10.57;;;8.60;99.90;;;;;;5070350;28;20119;-52
2023/12/13 02:38:19;;;;;;;24.08;11.07;;;8.50;99.90;;;;;;5071176;28;20051;-49
2023/12/13 02:40:44;;;;;;;27.05;11.70;;;8.90;99.90;;;;;;5071175;28;20048;-51
2023/12/13 02:43:10;;;;;;;29.70;11.90;;;8.50;99.90;;;;;;5072038;28;20435;-50
2023/12/13 02:45:36;;;;;;;28.38;12.23;;;8.80;99.90;;;;;;5071053;28;20042;-52
2023/12/13 02:48:01;;;;;;;30.17;11.77;;;8.80;99.90;;;;;;5071851;28;20044;-52
2023/12/13 02:50:27;;;;;;;24.45;11.63;;;9.00;99.90;;;;;;5071244;28;20044;-50
2023/12/13 02:52:53;;;;;;;29.90;11.35;;;8.80;99.90;;;;;;5071655;28;20464;-51
2023/12/13 02:55:18;;;;;;;34.30;12.32;;;8.60;99.90;;;;;;5071054;28;20046;-52
2023/12/13 02:57:44;;;;;;;30.08;13.00;;;8.60;99.90;;;;;;5071367;28;20044;-51
2023/12/13 03:00:10;;;;;;;25.83;11.75;;;8.60;99.90;;;;;;5071205;28;20085;-51
2023/12/13 03:02:38;;;;;;;33.35;12.35;;;8.60;99.90;;;;;;5070685;28;20048;-53
2023/12/13 03:05:04;;;;;;;30.08;12.13;;;9.20;99.90;;;;;;5069704;28;20115;-50
2023/12/13 03:07:29;;;;;;;35.45;12.93;;;8.80;99.90;;;;;;5071452;28;20044;-49
2023/12/13 03:09:55;;;;;;;32.60;12.52;;;8.60;99.90;;;;;;5071677;28;20041;-50
2023/12/13 03:12:21;;;;;;;28.48;13.43;;;9.00;99.90;;;;;;5071086;28;20070;-50
2023/12/13 03:14:46;;;;;;;34.67;12.77;;;9.00;99.90;;;;;;5070592;28;20125;-51
2023/12/13 03:17:12;;;;;;;30.90;12.75;;;8.60;99.90;;;;;;5070744;28;20044;-50
2023/12/13 03:19:38;;;;;;;30.85;12.90;;;8.70;99.90;;;;;;5070163;28;20048;-52
2023/12/13 03:22:05;;;;;;;32.75;13.38;;;8.60;99.90;;;;;;5071178;28;20056;-50
2023/12/13 03:24:30;;;;;;;35.38;13.82;;;8.60;99.90;;;;;;5070958;28;20044;-51
2023/12/13 03:26:56;;;;;;;35.00;14.23;;;8.60;99.90;;;;;;5070605;28;20040;-52
2023/12/13 03:29:22;;;;;;;34.20;13.70;;;8.90;99.90;;;;;;5071210;28;20073;-50
2023/12/13 03:31:48;;;;;;;34.28;14.05;;;8.70;99.90;;;;;;5070878;28;20047;-52
2023/12/13 03:34:14;;;;;;;38.25;15.32;;;8.60;99.90;;;;;;5071134;28;20040;-48
2023/12/13 03:36:40;;;;;;;38.65;14.75;;;8.90;99.90;;;;;;5070661;28;20044;-54
2023/12/13 03:39:07;;;;;;;31.73;14.32;;;8.80;99.90;;;;;;5070741;28;20598;-51
2023/12/13 03:41:33;;;;;;;31.67;13.75;;;8.80;99.90;;;;;;5070291;28;20477;-51
2023/12/13 03:43:59;;;;;;;36.60;14.65;;;8.60;99.90;;;;;;5069648;28;20610;-50
2023/12/13 03:46:25;;;;;;;41.58;15.48;;;9.10;99.90;;;;;;5070446;28;20476;-50
2023/12/13 03:48:50;;;;;;;37.05;15.32;;;8.60;99.90;;;;;;5070676;28;20032;-52
2023/12/13 03:51:16;;;;;;;41.35;15.57;;;8.50;99.90;;;;;;5070435;28;20037;-53
2023/12/13 03:53:42;;;;;;;36.17;15.27;;;8.60;99.90;;;;;;5070745;28;20040;-52
2023/12/13 03:56:09;;;;;;;48.20;15.68;;;8.70;99.90;;;;;;5072580;28;20024;-54
2023/12/13 03:58:35;;;;;;;38.38;16.48;;;8.80;99.90;;;;;;5074049;28;20041;-52
2023/12/13 04:01:01;;;;;;;38.70;16.27;;;8.80;99.90;;;;;;5074188;28;20051;-51
2023/12/13 04:03:27;;;;;;;40.75;16.42;;;8.60;99.90;;;;;;5074045;28;20047;-49
2023/12/13 04:05:53;;;;;;;42.65;17.23;;;9.40;99.90;;;;;;5073929;28;20052;-49
2023/12/13 04:08:19;;;;;;;42.35;16.95;;;9.00;99.90;;;;;;5074017;28;20040;-52
2023/12/13 04:10:44;;;;;;;42.67;17.23;;;8.80;99.90;;;;;;5073683;28;20036;-52
2023/12/13 04:13:10;;;;;;;39.50;16.77;;;8.60;99.90;;;;;;5073892;28;20125;-51
2023/12/13 04:15:36;;;;;;;38.85;17.52;;;9.10;99.90;;;;;;5073238;28;20043;-51
2023/12/13 04:18:01;;;;;;;44.22;18.38;;;8.60;99.90;;;;;;5073957;28;20044;-52
2023/12/13 04:20:27;;;;;;;49.88;18.30;;;9.10;99.90;;;;;;5073167;28;20036;-50
2023/12/13 04:22:53;;;;;;;39.45;17.05;;;8.70;99.90;;;;;;5073988;28;20092;-51
2023/12/13 04:25:18;;;;;;;43.00;17.70;;;8.60;99.90;;;;;;5073677;28;20041;-54
2023/12/13 04:27:47;;;;;;;47.55;17.60;;;9.00;99.90;;;;;;5073134;28;20045;-52
2023/12/13 04:30:13;;;;;;;40.80;17.75;;;9.10;99.90;;;;;;5072797;28;20056;-50
2023/12/13 04:32:39;;;;;;;47.22;17.73;;;8.80;99.90;;;;;;5073346;28;20476;-52
2023/12/13 04:35:06;;;;;;;41.45;18.65;;;8.60;99.90;;;;;;5073799;28;20047;-47
2023/12/13 04:37:32;;;;;;;43.78;18.92;;;9.00;99.90;;;;;;5073533;28;20112;-52
2023/12/13 04:39:58;;;;;;;40.95;17.92;;;9.00;99.90;;;;;;5073581;28;20084;-52
2023/12/13 04:42:24;;;;;;;45.88;18.00;;;8.60;99.90;;;;;;5073452;28;20110;-50
2023/12/13 04:44:50;;;;;;;45.35;18.33;;;8.50;99.90;;;;;;5073376;28;20028;-50
2023/12/13 04:47:16;;;;;;;41.10;17.63;;;8.50;99.90;;;;;;5073568;28;20395;-51
2023/12/13 04:49:41;;;;;;;40.92;17.58;;;8.50;99.90;;;;;;5073220;28;20111;-49
2023/12/13 04:52:07;;;;;;;47.63;18.13;;;9.00;99.90;;;;;;5073920;28;20468;-49
2023/12/13 04:54:35;;;;;;;43.33;18.80;;;9.00;99.90;;;;;;5073937;28;20446;-49
2023/12/13 04:57:01;;;;;;;48.90;19.38;;;8.50;99.90;;;;;;5072404;28;20051;-50
2023/12/13 04:59:27;;;;;;;52.72;19.48;;;9.00;99.90;;;;;;5073746;28;20044;-53
2023/12/13 05:01:52;;;;;;;50.22;18.75;;;8.80;99.90;;;;;;5073641;28;20044;-50
2023/12/13 05:04:18;;;;;;;48.95;19.83;;;9.10;99.90;;;;;;5069859;28;20539;-50
2023/12/13 05:06:44;;;;;;;43.22;18.80;;;8.80;99.90;;;;;;5073166;28;20086;-50
2023/12/13 05:09:09;;;;;;;43.95;19.08;;;8.90;99.90;;;;;;5073362;28;20032;-50
2023/12/13 05:11:35;;;;;;;46.08;18.50;;;9.10;99.90;;;;;;5073027;28;20044;-51
2023/12/13 05:14:00;;;;;;;49.58;20.17;;;8.70;99.90;;;;;;5073259;28;20555;-50
2023/12/13 05:16:26;;;;;;;46.03;18.80;;;8.70;99.90;;;;;;5072972;28;20068;-50
2023/12/13 05:18:52;;;;;;;58.05;19.20;;;9.00;99.90;;;;;;5073513;28;20037;-53
2023/12/13 05:21:18;;;;;;;54.13;19.77;;;8.70;99.90;;;;;;5072780;28;20407;-50
2023/12/13 05:23:43;;;;;;;46.97;19.35;;;8.90;99.90;;;;;;5073225;28;20464;-50
2023/12/13 05:26:09;;;;;;;49.92;19.48;;;8.50;99.90;;;;;;5072932;28;20033;-52
2023/12/13 05:28:35;;;;;;;49.00;20.33;;;8.60;99.90;;;;;;5072529;28;20072;-52
2023/12/13 05:31:00;;;;;;;53.33;20.42;;;9.00;99.90;;;;;;5072791;28;20036;-49
2023/12/13 05:33:26;;;;;;;45.08;19.40;;;9.00;99.90;;;;;;5072840;28;20040;-51
2023/12/13 05:35:52;;;;;;;46.80;19.48;;;9.20;99.90;;;;;;5072919;28;20112;-50
2023/12/13 05:38:17;;;;;;;46.38;19.25;;;8.50;99.90;;;;;;5073122;28;20131;-52
2023/12/13 05:40:43;;;;;;;51.90;20.27;;;9.10;99.90;;;;;;5072382;28;20101;-51
2023/12/13 05:43:09;;;;;;;48.63;19.80;;;8.90;99.90;;;;;;5072600;28;20036;-49
2023/12/13 05:45:34;;;;;;;47.40;20.13;;;8.80;99.90;;;;;;5072371;28;20036;-51
2023/12/13 05:48:00;;;;;;;45.70;18.63;;;8.60;99.90;;;;;;5072766;28;20102;-50
2023/12/13 05:50:26;;;;;;;46.53;19.02;;;9.10;99.90;;;;;;5072449;28;20055;-52
2023/12/13 05:52:51;;;;;;;47.65;19.27;;;8.70;99.90;;;;;;5072713;28;20124;-51
2023/12/13 05:55:17;;;;;;;51.05;19.98;;;9.10;99.90;;;;;;5072456;28;20044;-51
2023/12/13 05:57:43;;;;;;;46.78;18.85;;;8.80;99.90;;;;;;5072891;28;20821;-50
2023/12/13 06:00:09;;;;;;;48.60;18.75;;;8.90;99.90;;;;;;5072438;28;20045;-50
2023/12/13 06:02:35;;;;;;;51.47;19.70;;;8.80;99.90;;;;;;5072488;28;20032;-49
2023/12/13 06:05:04;;;;;;;59.67;21.20;;;9.00;99.90;;;;;;5072144;28;20028;-52
2023/12/13 06:07:30;;;;;;;59.05;20.65;;;9.10;99.90;;;;;;5072222;28;20036;-52
2023/12/13 06:09:56;;;;;;;53.28;20.63;;;8.60;99.90;;;;;;5071242;28;20082;-48
2023/12/13 06:12:22;;;;;;;54.30;20.80;;;8.90;99.90;;;;;;5072102;28;20442;-49
2023/12/13 06:14:48;;;;;;;58.65;20.60;;;8.50;99.90;;;;;;5072491;28;20132;-50
2023/12/13 06:17:13;;;;;;;51.50;20.70;;;8.70;99.90;;;;;;5071945;28;20115;-53
2023/12/13 06:19:40;;;;;;;59.65;22.05;;;8.60;99.90;;;;;;5070647;28;20074;-50
2023/12/13 06:22:10;;;;;;;51.08;20.05;;;8.90;99.90;;;;;;5071642;28;20182;-51
2023/12/13 06:24:36;;;;;;;57.47;21.08;;;8.90;99.90;;;;;;5070701;28;20227;-51
2023/12/13 06:27:02;;;;;;;56.50;21.17;;;8.90;99.90;;;;;;5072041;28;20119;-50
2023/12/13 06:29:28;;;;;;;54.50;20.88;;;9.00;99.90;;;;;;5071825;28;20044;-49
2023/12/13 06:31:53;;;;;;;55.10;21.08;;;8.90;99.90;;;;;;5071685;28;20063;-50
2023/12/13 06:34:19;;;;;;;53.47;21.40;;;8.70;99.90;;;;;;5071622;28;20063;-51
2023/12/13 06:36:45;;;;;;;61.55;22.40;;;8.70;99.90;;;;;;5071662;28;20051;-49
2023/12/13 06:39:11;;;;;;;57.30;20.50;;;8.90;99.90;;;;;;5071512;28;20071;-50
2023/12/13 06:41:40;;;;;;;57.75;21.60;;;8.90;99.90;;;;;;5071414;28;20049;-52
2023/12/13 06:44:09;;;;;;;61.22;20.70;;;8.70;99.90;;;;;;5071444;28;20186;-51
2023/12/13 06:46:35;;;;;;;52.95;20.25;;;9.10;99.90;;;;;;5069969;28;20047;-51
2023/12/13 06:49:00;;;;;;;57.97;21.40;;;9.40;99.90;;;;;;5071530;28;20028;-49
2023/12/13 06:51:26;;;;;;;62.20;20.95;;;8.70;99.90;;;;;;5070795;28;20467;-50
2023/12/13 06:53:52;;;;;;;58.30;21.55;;;8.60;99.90;;;;;;5071751;28;20036;-51
2023/12/13 06:56:18;;;;;;;51.97;20.50;;;8.90;99.90;;;;;;5071081;28;20033;-50
2023/12/13 06:58:44;;;;;;;69.35;23.20;;;9.00;99.90;;;;;;5071430;28;20041;-52
2023/12/13 07:01:10;;;;;;;62.95;20.88;;;8.60;99.90;;;;;;5070948;28;20132;-51
2023/12/13 07:03:35;;;;;;;61.95;21.75;;;8.80;99.90;;;;;;5071220;28;20042;-48
2023/12/13 07:06:03;;;;;;;57.30;20.23;;;8.60;99.90;;;;;;5071134;28;20040;-49
2023/12/13 07:08:28;;;;;;;60.22;20.73;;;9.10;99.90;;;;;;5070187;28;20037;-49
2023/12/13 07:10:54;;;;;;;58.25;20.88;;;8.60;99.90;;;;;;5070804;28;20044;-50
2023/12/13 07:13:20;;;;;;;61.50;21.35;;;9.00;99.90;;;;;;5071007;28;20044;-49
2023/12/13 07:15:46;;;;;;;59.70;21.45;;;8.60;99.90;;;;;;5071013;28;20130;-49
2023/12/13 07:18:12;;;;;;;56.85;21.45;;;9.00;99.90;;;;;;5071314;28;20091;-52
2023/12/13 07:20:38;;;;;;;63.15;21.05;;;8.60;99.90;;;;;;5070436;28;20068;-52
2023/12/13 07:23:05;;;;;;;55.35;21.75;;;8.80;99.90;;;;;;5071046;28;20090;-49
2023/12/13 07:25:30;;;;;;;55.60;20.42;;;8.60;99.90;;;;;;5069862;28;20044;-52
2023/12/13 07:27:56;;;;;;;58.28;21.45;;;8.60;99.90;;;;;;5070958;28;20043;-49
2023/12/13 07:30:23;;;;;;;59.35;21.33;;;8.60;99.90;;;;;;5070772;28;20067;-51
2023/12/13 07:32:50;;;;;;;64.95;20.77;;;8.90;99.90;;;;;;5070972;28;20090;-52
2023/12/13 07:35:15;;;;;;;62.88;20.60;;;9.00;99.90;;;;;;5069339;28;20044;-51
2023/12/13 07:37:41;;;;;;;60.75;20.90;;;9.00;99.90;;;;;;5070349;28;20507;-52
2023/12/13 07:40:07;;;;;;;62.78;20.48;;;9.00;99.90;;;;;;5070324;28;20048;-51
2023/12/13 07:42:34;;;;;;;60.83;21.52;;;8.60;99.90;;;;;;5070872;28;20056;-49
2023/12/13 07:45:00;;;;;;;69.35;21.58;;;8.60;99.90;;;;;;5070782;28;20028;-52
2023/12/13 07:47:26;;;;;;;63.33;20.80;;;8.80;99.90;;;;;;5070624;28;20098;-51
2023/12/13 07:49:53;;;;;;;63.85;22.33;;;8.60;99.90;;;;;;5070121;28;20064;-48
2023/12/13 07:52:18;;;;;;;53.65;21.50;;;8.60;99.90;;;;;;5070963;28;20040;-49
2023/12/13 07:54:44;;;;;;;61.33;20.98;;;8.80;99.90;;;;;;5064924;28;20131;-52
2023/12/13 07:57:10;;;;;;;58.83;20.35;;;9.10;99.90;;;;;;5070692;28;20048;-49
2023/12/13 07:59:35;;;;;;;76.65;21.70;;;9.10;99.90;;;;;;5070129;28;20094;-51
2023/12/13 08:02:01;;;;;;;70.28;22.17;;;9.10;99.90;;;;;;5070874;28;20473;-52
2023/12/13 08:04:27;;;;;;;64.35;21.80;;;8.80;99.90;;;;;;5070387;28;20093;-51
2023/12/13 08:06:53;;;;;;;64.25;21.23;;;8.60;99.90;;;;;;5060011;28;20499;-50
2023/12/13 08:09:19;;;;;;;77.55;21.83;;;8.60;99.90;;;;;;5060604;28;20484;-49
2023/12/13 08:11:49;;;;;;;64.65;21.77;;;8.70;99.90;;;;;;5061459;28;20036;-54
2023/12/13 08:14:15;;;;;;;57.50;21.05;;;8.60;99.90;;;;;;5060057;28;20032;-51
2023/12/13 08:16:41;;;;;;;72.93;20.90;;;9.20;99.90;;;;;;5058733;28;20024;-51
2023/12/13 08:19:07;;;;;;;63.05;19.63;;;8.60;99.90;;;;;;5060510;28;20076;-46
2023/12/13 08:21:33;;;;;;;57.08;19.83;;;9.10;99.90;;;;;;5058912;28;20179;-49
2023/12/13 08:23:58;;;;;;;89.63;22.52;;;9.10;99.90;;;;;;5059605;28;20524;-54
2023/12/13 08:26:27;;;;;;;63.83;20.45;;;8.70;99.90;;;;;;5061481;28;20031;-52
2023/12/13 08:28:52;;;;;;;64.20;22.45;;;8.80;99.90;;;;;;5059486;28;20037;-49
2023/12/13 08:31:18;;;;;;;70.93;21.83;;;8.90;99.90;;;;;;5059622;28;20123;-51
2023/12/13 08:33:44;;;;;;;70.22;22.17;;;8.70;99.90;;;;;;5059694;28;20037;-53
2023/12/13 08:36:11;;;;;;;104.43;39.47;;;8.80;99.90;;;;;;5060785;28;20040;-53
2023/12/13 08:38:40;;;;;;;66.95;20.38;;;8.90;99.90;;;;;;5060749;28;20056;-52
2023/12/13 08:41:07;;;;;;;63.47;20.92;;;8.90;99.90;;;;;;5055996;28;20347;-52
2023/12/13 08:43:33;;;;;;;86.53;21.73;;;9.20;99.90;;;;;;5061384;28;20040;-52
2023/12/13 08:45:58;;;;;;;65.47;21.15;;;9.00;99.90;;;;;;5063846;28;20078;-53
2023/12/13 08:48:25;;;;;;;71.05;21.98;;;9.20;99.90;;;;;;5062635;28;20063;-51
2023/12/13 08:50:51;;;;;;;71.85;21.70;;;9.10;99.90;;;;;;5061843;28;20283;-52
2023/12/13 08:53:17;;;;;;;64.55;21.13;;;8.90;99.90;;;;;;5064904;28;21932;-48
2023/12/13 08:55:42;;;;;;;73.20;22.70;;;9.20;99.90;;;;;;5064778;28;20114;-51
2023/12/13 08:58:08;;;;;;;57.67;21.30;;;9.00;99.90;;;;;;5063959;28;20040;-51
2023/12/13 09:00:34;;;;;;;85.32;22.58;;;8.90;99.90;;;;;;5064229;28;20048;-52
2023/12/13 09:03:01;;;;;;;61.50;20.08;;;9.30;99.90;;;;;;5064682;28;20570;-50
2023/12/13 09:05:27;;;;;;;78.05;21.23;;;9.20;99.90;;;;;;5062378;28;21401;-51
2023/12/13 09:07:53;;;;;;;58.30;20.45;;;9.00;99.90;;;;;;5062183;28;20045;-51
2023/12/13 09:10:20;;;;;;;89.75;22.92;;;9.30;99.90;;;;;;5060900;28;20033;-53
2023/12/13 09:12:46;;;;;;;66.25;22.83;;;9.40;99.90;;;;;;5062726;28;20103;-51
2023/12/13 09:15:11;;;;;;;72.20;22.40;;;9.30;99.90;;;;;;5063766;28;20682;-52
2023/12/13 09:17:39;;;;;;;72.65;22.70;;;9.20;99.90;;;;;;5064394;28;20086;-52
2023/12/13 09:20:09;;;;;;;73.93;22.33;;;9.00;99.90;;;;;;5062320;28;20040;-53
2023/12/13 09:22:35;;;;;;;68.22;22.50;;;9.00;99.90;;;;;;5064036;28;20551;-53
2023/12/13 09:25:01;;;;;;;70.47;23.17;;;9.00;99.90;;;;;;5063863;28;20033;-51
2023/12/13 09:27:27;;;;;;;72.78;23.33;;;9.00;99.90;;;;;;5062805;28;20029;-54
2023/12/13 09:29:53;;;;;;;73.90;24.15;;;9.50;99.90;;;;;;5064637;28;20036;-51
2023/12/13 09:32:19;;;;;;;63.55;22.58;;;9.10;99.90;;;;;;5062486;28;20135;-49
2023/12/13 09:34:44;;;;;;;80.47;23.98;;;9.20;99.90;;;;;;5064463;28;20036;-50
2023/12/13 09:37:10;;;;;;;77.80;24.15;;;9.10;99.90;;;;;;5063828;28;21241;-48
2023/12/13 09:39:35;;;;;;;72.05;23.10;;;9.60;99.90;;;;;;5062535;28;20051;-52
2023/12/13 09:42:03;;;;;;;71.53;22.67;;;9.30;99.90;;;;;;5063764;28;20041;-53
2023/12/13 09:44:31;;;;;;;71.65;23.83;;;9.60;99.90;;;;;;5063465;28;20048;-52
2023/12/13 09:46:59;;;;;;;64.18;23.30;;;9.30;99.90;;;;;;5063644;28;20036;-48
2023/12/13 09:49:27;;;;;;;73.95;24.42;;;9.60;99.90;;;;;;5061732;28;20047;-49
2023/12/13 09:51:54;;;;;;;69.97;24.10;;;9.70;99.90;;;;;;5063313;28;20411;-52
2023/12/13 09:54:20;;;;;;;70.50;23.45;;;9.80;99.90;;;;;;5063234;28;20040;-50
2023/12/13 09:56:46;;;;;;;58.17;23.00;;;9.40;99.90;;;;;;5063432;28;20123;-51
2023/12/13 09:59:12;;;;;;;75.97;24.90;;;9.50;99.90;;;;;;5063105;28;20120;-50
2023/12/13 10:01:37;;;;;;;64.25;23.67;;;10.00;99.90;;;;;;5063178;28;20083;-52
2023/12/13 10:04:03;;;;;;;66.90;25.35;;;9.90;99.90;;;;;;5062621;28;20033;-51
2023/12/13 10:06:29;;;;;;;70.60;25.25;;;10.00;99.90;;;;;;5063702;28;20070;-51
2023/12/13 10:09:01;;;;;;;74.75;24.02;;;10.10;99.90;;;;;;5063461;28;20124;-51
2023/12/13 10:11:27;;;;;;;63.35;24.55;;;9.70;99.90;;;;;;5061135;28;20101;-52
2023/12/13 10:13:53;;;;;;;58.35;23.35;;;10.20;99.90;;;;;;5062599;28;20069;-52
2023/12/13 10:16:19;;;;;;;71.70;24.83;;;9.90;99.90;;;;;;5063625;28;20079;-51
2023/12/13 10:18:46;;;;;;;58.67;34.83;;;10.30;99.90;;;;;;5061088;28;20061;-49
2023/12/13 10:21:13;;;;;;;67.68;24.02;;;10.30;99.90;;;;;;5062954;28;20044;-48
2023/12/13 10:23:43;;;;;;;59.35;23.08;;;9.90;99.90;;;;;;5063270;28;20077;-50
2023/12/13 10:26:10;;;;;;;67.63;23.10;;;10.40;99.90;;;;;;5061944;28;20472;-52
2023/12/13 10:28:36;;;;;;;57.85;33.83;;;10.20;99.90;;;;;;5060974;28;20487;-51
2023/12/13 10:31:03;;;;;;;52.13;22.10;;;10.40;99.90;;;;;;5063162;28;20047;-51
2023/12/13 10:33:29;;;;;;;57.03;21.65;;;10.30;99.90;;;;;;5062057;28;20052;-48
2023/12/13 10:35:57;;;;;;;62.25;22.23;;;10.00;99.90;;;;;;5061407;28;20033;-51
2023/12/13 10:38:25;;;;;;;53.20;21.17;;;9.80;99.90;;;;;;5059252;28;20443;-52
2023/12/13 10:40:52;;;;;;;49.72;20.52;;;10.10;99.90;;;;;;5056972;28;20080;-53
2023/12/13 10:43:19;;;;;;;54.17;22.27;;;9.80;99.90;;;;;;5062343;28;20074;-51
2023/12/13 10:45:59;;;;;;;54.85;21.85;;;9.80;99.90;;;;;;5061811;28;20044;-50
2023/12/13 10:48:33;;;;;;;65.43;22.58;;;10.30;99.90;;;;;;5062597;28;20494;-49
2023/12/13 10:50:59;;;;;;;;;;;9.80;99.90;;;;;;5062273;28;20047;-54
2023/12/13 10:53:30;;;;;;;62.78;20.83;;;10.10;99.90;;;;;;5061670;28;19927;-48
2023/12/13 10:55:57;;;;;;;57.20;21.67;;;9.90;99.90;;;;;;5056396;28;20480;-51
2023/12/13 10:58:25;;;;;;;56.70;22.73;;;9.80;99.90;;;;;;5058939;28;20233;-50
2023/12/13 11:00:51;;;;;;;53.88;21.85;;;9.80;99.90;;;;;;5057111;28;20476;-51
2023/12/13 11:03:23;;;;;;;57.15;21.33;;;10.20;99.90;;;;;;5052664;28;20032;-51
2023/12/13 11:05:49;;;;;;;50.88;20.45;;;10.20;99.90;;;;;;5051231;28;20033;-51
2023/12/13 11:08:17;;;;;;;55.60;34.05;;;10.10;99.90;;;;;;5067027;28;20033;-50
2023/12/13 11:11:04;;;;;;;53.60;20.90;;;9.90;99.90;;;;;;5058845;28;20387;-47
2023/12/13 11:13:30;;;;;;;47.88;19.65;;;9.80;99.90;;;;;;5057826;28;20048;-51
2023/12/13 11:15:57;;;;;;;53.50;20.50;;;10.20;99.90;;;;;;5063297;28;20661;-50
2023/12/13 11:18:24;;;;;;;56.67;22.55;;;10.30;99.90;;;;;;5060640;28;20480;-53
2023/12/13 11:20:55;;;;;;;58.25;20.88;;;9.90;99.90;;;;;;5062287;28;20049;-54
2023/12/13 11:23:25;;;;;;;48.13;20.90;;;9.90;99.90;;;;;;5062131;28;20090;-49
2023/12/13 11:25:51;;;;;;;62.92;21.05;;;10.30;99.90;;;;;;5058229;28;20024;-49
2023/12/13 11:28:24;;;;;;;52.42;20.70;;;10.40;99.90;;;;;;5056961;28;20051;-53
2023/12/13 11:30:53;;;;;;;66.88;22.95;;;10.30;99.90;;;;;;5057129;28;20050;-49
2023/12/13 11:33:21;;;;;;;57.78;20.85;;;10.30;99.90;;;;;;5055872;28;20463;-51
2023/12/13 11:35:49;;;;;;;56.20;22.13;;;10.30;99.90;;;;;;5056014;28;20111;-53
2023/12/13 11:38:15;;;;;;;61.97;22.23;;;9.90;99.90;;;;;;5063102;28;20571;-51
2023/12/13 11:40:41;;;;;;;70.22;22.20;;;9.90;99.90;;;;;;5060142;28;20041;-51
2023/12/13 11:43:07;;;;;;;58.95;21.58;;;9.90;99.90;;;;;;5059808;28;20531;-51
2023/12/13 11:45:33;;;;;;;63.83;22.55;;;10.30;99.90;;;;;;5059644;28;20055;-50
2023/12/13 11:48:01;;;;;;;52.40;20.10;;;10.00;99.90;;;;;;5053242;28;20035;-49
2023/12/13 11:50:27;;;;;;;60.65;21.23;;;10.00;99.90;;;;;;5056479;28;20755;-50
2023/12/13 11:52:52;;;;;;;54.80;20.27;;;10.30;99.90;;;;;;5056834;28;20048;-52
2023/12/13 11:55:22;;;;;;;52.40;20.67;;;9.90;99.90;;;;;;5054859;28;20033;-53
2023/12/13 11:57:49;;;;;;;58.10;20.92;;;10.30;99.90;;;;;;5055470;28;20036;-50
2023/12/13 12:00:18;;;;;;;51.47;19.77;;;9.80;99.90;;;;;;5056403;28;20128;-54
2023/12/13 12:02:45;;;;;;;52.78;19.88;;;9.90;99.90;;;;;;5056221;28;20036;-54
2023/12/13 12:05:12;;;;;;;50.50;20.45;;;10.20;99.90;;;;;;5060310;28;20424;-50
2023/12/13 12:07:38;;;;;;;56.95;20.10;;;10.30;99.90;;;;;;5058099;28;20036;-53
2023/12/13 12:10:04;;;;;;;47.83;19.67;;;10.30;99.90;;;;;;5058624;28;20397;-51
2023/12/13 12:12:30;;;;;;;59.15;19.45;;;9.90;99.90;;;;;;5059330;28;20127;-51
2023/12/13 12:14:56;;;;;;;57.10;20.20;;;10.30;99.90;;;;;;5060412;28;20166;-53
2023/12/13 12:17:23;;;;;;;44.28;18.73;;;9.80;99.90;;;;;;5061033;28;20037;-51
2023/12/13 12:19:51;;;;;;;62.58;19.92;;;9.90;99.90;;;;;;5063431;28;20253;-53
2023/12/13 12:22:21;;;;;;;53.70;20.90;;;10.40;99.90;;;;;;5071776;28;20403;-53
2023/12/13 12:24:49;;;;;;;60.33;22.00;;;10.00;99.90;;;;;;5061596;28;20024;-50
2023/12/13 12:27:15;;;;;;;55.58;21.30;;;10.40;99.90;;;;;;5061734;28;20051;-51
2023/12/13 12:29:41;;;;;;;66.03;23.50;;;9.90;99.90;;;;;;5062232;28;20029;-53
2023/12/13 12:32:11;;;;;;;64.72;22.92;;;10.10;99.90;;;;;;5062278;28;20483;-51